sensor_id;sensor_type;location;lat;lon;timestamp;P1;durP1;ratioP1;P2;durP2;ratioP2
56051;SDS011;41919;42.648;23.384;2023-06-14T00:00:04;11.02;;;6.30;;
56051;SDS011;41919;42.648;23.384;2023-06-14T00:02:30;8.77;;;5.57;;
56051;SDS011;41919;42.648;23.384;2023-06-14T00:04:56;8.77;;;6.05;;
56051;SDS011;41919;42.648;23.384;2023-06-14T00:07:22;8.25;;;6.07;;
56051;SDS011;41919;42.648;23.384;2023-06-14T00:10:02;9.75;;;5.78;;
56051;SDS011;41919;42.648;23.384;2023-06-14T00:12:29;7.93;;;5.53;;
56051;SDS011;41919;42.648;23.384;2023-06-14T00:14:54;9.98;;;6.07;;
56051;SDS011;41919;42.648;23.384;2023-06-14T00:17:20;6.65;;;4.90;;
56051;SDS011;41919;42.648;23.384;2023-06-14T00:19:45;7.50;;;5.10;;
56051;SDS011;41919;42.648;23.384;2023-06-14T00:22:11;6.97;;;4.97;;
56051;SDS011;41919;42.648;23.384;2023-06-14T00:24:37;7.90;;;5.40;;
56051;SDS011;41919;42.648;23.384;2023-06-14T00:27:02;10.07;;;5.65;;
56051;SDS011;41919;42.648;23.384;2023-06-14T00:29:28;8.23;;;5.10;;
56051;SDS011;41919;42.648;23.384;2023-06-14T00:31:53;11.95;;;5.80;;
56051;SDS011;41919;42.648;23.384;2023-06-14T00:34:18;10.18;;;5.18;;
56051;SDS011;41919;42.648;23.384;2023-06-14T00:36:44;6.85;;;4.53;;
56051;SDS011;41919;42.648;23.384;2023-06-14T00:39:09;9.77;;;5.65;;
56051;SDS011;41919;42.648;23.384;2023-06-14T00:41:35;7.43;;;5.93;;
56051;SDS011;41919;42.648;23.384;2023-06-14T00:44:00;12.02;;;6.43;;
56051;SDS011;41919;42.648;23.384;2023-06-14T00:46:26;10.15;;;6.30;;
56051;SDS011;41919;42.648;23.384;2023-06-14T00:48:51;11.00;;;6.40;;
56051;SDS011;41919;42.648;23.384;2023-06-14T00:51:17;9.10;;;6.10;;
56051;SDS011;41919;42.648;23.384;2023-06-14T00:53:43;9.88;;;7.50;;
56051;SDS011;41919;42.648;23.384;2023-06-14T00:56:12;9.30;;;6.38;;
56051;SDS011;41919;42.648;23.384;2023-06-14T00:58:38;10.80;;;6.90;;
56051;SDS011;41919;42.648;23.384;2023-06-14T01:01:04;9.23;;;6.05;;
56051;SDS011;41919;42.648;23.384;2023-06-14T01:03:30;8.70;;;6.53;;
56051;SDS011;41919;42.648;23.384;2023-06-14T01:06:03;11.07;;;6.50;;
56051;SDS011;41919;42.648;23.384;2023-06-14T01:11:25;10.40;;;6.97;;
56051;SDS011;41919;42.648;23.384;2023-06-14T01:13:56;8.50;;;5.88;;
56051;SDS011;41919;42.648;23.384;2023-06-14T01:16:27;7.82;;;5.85;;
56051;SDS011;41919;42.648;23.384;2023-06-14T01:18:54;10.30;;;6.32;;
56051;SDS011;41919;42.648;23.384;2023-06-14T01:21:24;9.20;;;6.25;;
56051;SDS011;41919;42.648;23.384;2023-06-14T01:23:51;9.65;;;6.30;;
56051;SDS011;41919;42.648;23.384;2023-06-14T01:26:18;10.35;;;6.25;;
56051;SDS011;41919;42.648;23.384;2023-06-14T01:28:47;9.65;;;6.50;;
56051;SDS011;41919;42.648;23.384;2023-06-14T01:31:17;10.23;;;6.43;;
56051;SDS011;41919;42.648;23.384;2023-06-14T01:33:46;10.85;;;6.93;;
56051;SDS011;41919;42.648;23.384;2023-06-14T01:36:14;9.68;;;6.55;;
56051;SDS011;41919;42.648;23.384;2023-06-14T01:38:40;8.90;;;6.35;;
56051;SDS011;41919;42.648;23.384;2023-06-14T01:41:09;10.55;;;6.53;;
56051;SDS011;41919;42.648;23.384;2023-06-14T01:43:35;10.60;;;6.97;;
56051;SDS011;41919;42.648;23.384;2023-06-14T01:46:01;8.38;;;6.32;;
56051;SDS011;41919;42.648;23.384;2023-06-14T01:48:28;9.35;;;6.03;;
56051;SDS011;41919;42.648;23.384;2023-06-14T01:50:53;9.75;;;6.13;;
56051;SDS011;41919;42.648;23.384;2023-06-14T01:53:19;10.18;;;6.85;;
56051;SDS011;41919;42.648;23.384;2023-06-14T01:55:45;11.55;;;6.88;;
56051;SDS011;41919;42.648;23.384;2023-06-14T01:58:13;13.45;;;6.80;;
56051;SDS011;41919;42.648;23.384;2023-06-14T02:00:41;10.82;;;6.43;;
56051;SDS011;41919;42.648;23.384;2023-06-14T02:03:08;9.98;;;6.47;;
56051;SDS011;41919;42.648;23.384;2023-06-14T02:05:33;9.63;;;6.40;;
56051;SDS011;41919;42.648;23.384;2023-06-14T02:07:59;11.40;;;6.25;;
56051;SDS011;41919;42.648;23.384;2023-06-14T02:10:25;8.18;;;5.70;;
56051;SDS011;41919;42.648;23.384;2023-06-14T02:12:51;10.45;;;6.22;;
56051;SDS011;41919;42.648;23.384;2023-06-14T02:15:16;12.43;;;6.68;;
56051;SDS011;41919;42.648;23.384;2023-06-14T02:17:43;8.45;;;6.30;;
56051;SDS011;41919;42.648;23.384;2023-06-14T02:20:09;9.70;;;6.15;;
56051;SDS011;41919;42.648;23.384;2023-06-14T02:22:35;8.40;;;6.15;;
56051;SDS011;41919;42.648;23.384;2023-06-14T02:25:01;9.15;;;5.80;;
56051;SDS011;41919;42.648;23.384;2023-06-14T02:27:26;10.35;;;5.57;;
56051;SDS011;41919;42.648;23.384;2023-06-14T02:29:52;8.27;;;5.85;;
56051;SDS011;41919;42.648;23.384;2023-06-14T02:32:17;8.63;;;5.35;;
56051;SDS011;41919;42.648;23.384;2023-06-14T02:34:42;11.60;;;5.65;;
56051;SDS011;41919;42.648;23.384;2023-06-14T02:37:08;11.13;;;5.07;;
56051;SDS011;41919;42.648;23.384;2023-06-14T02:39:33;7.32;;;4.60;;
56051;SDS011;41919;42.648;23.384;2023-06-14T02:41:59;6.85;;;4.95;;
56051;SDS011;41919;42.648;23.384;2023-06-14T02:44:25;4.57;;;4.10;;
56051;SDS011;41919;42.648;23.384;2023-06-14T02:46:54;7.57;;;4.60;;
56051;SDS011;41919;42.648;23.384;2023-06-14T02:49:20;4.97;;;4.25;;
56051;SDS011;41919;42.648;23.384;2023-06-14T02:51:46;4.70;;;4.00;;
56051;SDS011;41919;42.648;23.384;2023-06-14T02:54:12;6.25;;;4.10;;
56051;SDS011;41919;42.648;23.384;2023-06-14T02:56:37;6.22;;;4.60;;
56051;SDS011;41919;42.648;23.384;2023-06-14T02:59:03;5.43;;;4.25;;
56051;SDS011;41919;42.648;23.384;2023-06-14T03:01:28;4.93;;;3.85;;
56051;SDS011;41919;42.648;23.384;2023-06-14T03:04:02;5.78;;;4.20;;
56051;SDS011;41919;42.648;23.384;2023-06-14T03:06:30;4.95;;;4.15;;
56051;SDS011;41919;42.648;23.384;2023-06-14T03:08:56;6.93;;;3.83;;
56051;SDS011;41919;42.648;23.384;2023-06-14T03:11:25;6.57;;;4.72;;
56051;SDS011;41919;42.648;23.384;2023-06-14T03:13:51;6.55;;;4.45;;
56051;SDS011;41919;42.648;23.384;2023-06-14T03:16:17;7.70;;;5.10;;
56051;SDS011;41919;42.648;23.384;2023-06-14T03:18:46;9.38;;;4.20;;
56051;SDS011;41919;42.648;23.384;2023-06-14T03:21:12;5.40;;;4.65;;
56051;SDS011;41919;42.648;23.384;2023-06-14T03:23:38;6.53;;;4.82;;
56051;SDS011;41919;42.648;23.384;2023-06-14T03:26:03;5.57;;;4.57;;
56051;SDS011;41919;42.648;23.384;2023-06-14T03:28:28;6.13;;;4.30;;
56051;SDS011;41919;42.648;23.384;2023-06-14T03:30:54;5.88;;;4.88;;
56051;SDS011;41919;42.648;23.384;2023-06-14T03:33:19;6.80;;;4.32;;
56051;SDS011;41919;42.648;23.384;2023-06-14T03:35:45;7.68;;;4.63;;
56051;SDS011;41919;42.648;23.384;2023-06-14T03:38:11;5.15;;;4.13;;
56051;SDS011;41919;42.648;23.384;2023-06-14T03:40:36;5.53;;;4.50;;
56051;SDS011;41919;42.648;23.384;2023-06-14T03:43:02;5.13;;;4.30;;
56051;SDS011;41919;42.648;23.384;2023-06-14T03:45:27;10.93;;;5.00;;
56051;SDS011;41919;42.648;23.384;2023-06-14T03:47:53;5.43;;;4.93;;
56051;SDS011;41919;42.648;23.384;2023-06-14T03:50:19;6.45;;;4.68;;
56051;SDS011;41919;42.648;23.384;2023-06-14T03:52:45;5.95;;;4.68;;
56051;SDS011;41919;42.648;23.384;2023-06-14T03:55:11;8.32;;;4.50;;
56051;SDS011;41919;42.648;23.384;2023-06-14T03:57:38;5.10;;;4.57;;
56051;SDS011;41919;42.648;23.384;2023-06-14T04:00:04;6.35;;;5.10;;
56051;SDS011;41919;42.648;23.384;2023-06-14T04:02:31;6.97;;;4.40;;
56051;SDS011;41919;42.648;23.384;2023-06-14T04:04:56;8.73;;;4.72;;
56051;SDS011;41919;42.648;23.384;2023-06-14T04:07:21;6.82;;;4.80;;
56051;SDS011;41919;42.648;23.384;2023-06-14T04:09:47;6.22;;;4.50;;
56051;SDS011;41919;42.648;23.384;2023-06-14T04:12:13;5.15;;;4.07;;
56051;SDS011;41919;42.648;23.384;2023-06-14T04:14:39;5.63;;;4.28;;
56051;SDS011;41919;42.648;23.384;2023-06-14T04:17:05;7.35;;;5.55;;
56051;SDS011;41919;42.648;23.384;2023-06-14T04:19:31;9.52;;;6.00;;
56051;SDS011;41919;42.648;23.384;2023-06-14T04:21:57;7.60;;;5.05;;
56051;SDS011;41919;42.648;23.384;2023-06-14T04:24:24;6.43;;;4.90;;
56051;SDS011;41919;42.648;23.384;2023-06-14T04:26:50;5.03;;;4.53;;
56051;SDS011;41919;42.648;23.384;2023-06-14T04:29:16;9.80;;;5.97;;
56051;SDS011;41919;42.648;23.384;2023-06-14T04:31:45;7.65;;;5.80;;
56051;SDS011;41919;42.648;23.384;2023-06-14T04:34:11;8.38;;;5.80;;
56051;SDS011;41919;42.648;23.384;2023-06-14T04:36:41;6.20;;;5.30;;
56051;SDS011;41919;42.648;23.384;2023-06-14T04:39:14;7.75;;;4.95;;
56051;SDS011;41919;42.648;23.384;2023-06-14T04:41:45;6.18;;;5.05;;
56051;SDS011;41919;42.648;23.384;2023-06-14T04:44:11;5.30;;;4.53;;
56051;SDS011;41919;42.648;23.384;2023-06-14T04:46:37;6.53;;;5.32;;
56051;SDS011;41919;42.648;23.384;2023-06-14T04:49:14;5.70;;;5.10;;
56051;SDS011;41919;42.648;23.384;2023-06-14T06:24:04;14.07;;;9.30;;
56051;SDS011;41919;42.648;23.384;2023-06-14T06:26:31;13.63;;;8.60;;
56051;SDS011;41919;42.648;23.384;2023-06-14T06:28:57;11.75;;;8.80;;
56051;SDS011;41919;42.648;23.384;2023-06-14T06:31:22;11.05;;;8.68;;
56051;SDS011;41919;42.648;23.384;2023-06-14T06:33:48;11.80;;;9.20;;
56051;SDS011;41919;42.648;23.384;2023-06-14T06:36:13;14.13;;;8.93;;
56051;SDS011;41919;42.648;23.384;2023-06-14T06:38:38;12.77;;;8.40;;
56051;SDS011;41919;42.648;23.384;2023-06-14T06:41:04;12.10;;;8.70;;
56051;SDS011;41919;42.648;23.384;2023-06-14T06:43:29;14.73;;;8.35;;
56051;SDS011;41919;42.648;23.384;2023-06-14T06:45:54;12.57;;;8.63;;
56051;SDS011;41919;42.648;23.384;2023-06-14T06:48:20;13.93;;;8.98;;
56051;SDS011;41919;42.648;23.384;2023-06-14T06:50:45;12.50;;;8.57;;
56051;SDS011;41919;42.648;23.384;2023-06-14T06:53:11;15.10;;;8.25;;
56051;SDS011;41919;42.648;23.384;2023-06-14T06:55:36;12.20;;;8.30;;
56051;SDS011;41919;42.648;23.384;2023-06-14T06:58:01;14.88;;;9.07;;
56051;SDS011;41919;42.648;23.384;2023-06-14T07:00:29;11.13;;;8.00;;
56051;SDS011;41919;42.648;23.384;2023-06-14T07:02:55;12.00;;;8.55;;
56051;SDS011;41919;42.648;23.384;2023-06-14T07:05:22;12.75;;;9.10;;
56051;SDS011;41919;42.648;23.384;2023-06-14T07:07:47;14.75;;;8.85;;
56051;SDS011;41919;42.648;23.384;2023-06-14T07:10:12;11.82;;;8.90;;
56051;SDS011;41919;42.648;23.384;2023-06-14T07:12:38;11.90;;;8.48;;
56051;SDS011;41919;42.648;23.384;2023-06-14T07:15:05;12.93;;;8.38;;
56051;SDS011;41919;42.648;23.384;2023-06-14T07:17:32;11.23;;;8.90;;
56051;SDS011;41919;42.648;23.384;2023-06-14T07:19:58;10.80;;;8.63;;
56051;SDS011;41919;42.648;23.384;2023-06-14T07:22:25;13.93;;;8.40;;
56051;SDS011;41919;42.648;23.384;2023-06-14T07:24:51;17.42;;;9.05;;
56051;SDS011;41919;42.648;23.384;2023-06-14T07:27:17;12.32;;;8.55;;
56051;SDS011;41919;42.648;23.384;2023-06-14T07:29:42;14.30;;;9.38;;
56051;SDS011;41919;42.648;23.384;2023-06-14T07:32:07;14.55;;;8.32;;
56051;SDS011;41919;42.648;23.384;2023-06-14T07:34:33;12.02;;;8.00;;
56051;SDS011;41919;42.648;23.384;2023-06-14T07:36:58;10.75;;;8.07;;
56051;SDS011;41919;42.648;23.384;2023-06-14T07:39:24;10.45;;;8.23;;
56051;SDS011;41919;42.648;23.384;2023-06-14T07:41:49;9.85;;;7.57;;
56051;SDS011;41919;42.648;23.384;2023-06-14T07:44:15;9.95;;;8.55;;
56051;SDS011;41919;42.648;23.384;2023-06-14T07:46:41;10.23;;;7.28;;
56051;SDS011;41919;42.648;23.384;2023-06-14T07:49:06;10.90;;;8.32;;
56051;SDS011;41919;42.648;23.384;2023-06-14T07:51:32;11.07;;;7.78;;
56051;SDS011;41919;42.648;23.384;2023-06-14T07:53:58;9.27;;;7.95;;
56051;SDS011;41919;42.648;23.384;2023-06-14T07:56:26;9.02;;;7.60;;
56051;SDS011;41919;42.648;23.384;2023-06-14T07:58:51;9.85;;;8.00;;
56051;SDS011;41919;42.648;23.384;2023-06-14T08:01:17;8.85;;;7.40;;
56051;SDS011;41919;42.648;23.384;2023-06-14T08:03:42;8.35;;;7.15;;
56051;SDS011;41919;42.648;23.384;2023-06-14T08:06:08;10.65;;;7.57;;
56051;SDS011;41919;42.648;23.384;2023-06-14T08:08:33;10.23;;;7.30;;
56051;SDS011;41919;42.648;23.384;2023-06-14T08:10:59;9.93;;;8.60;;
56051;SDS011;41919;42.648;23.384;2023-06-14T08:13:24;7.90;;;6.88;;
56051;SDS011;41919;42.648;23.384;2023-06-14T08:15:50;7.38;;;6.50;;
56051;SDS011;41919;42.648;23.384;2023-06-14T08:18:16;11.52;;;7.68;;
56051;SDS011;41919;42.648;23.384;2023-06-14T08:20:41;9.35;;;7.75;;
56051;SDS011;41919;42.648;23.384;2023-06-14T08:23:06;8.77;;;7.88;;
56051;SDS011;41919;42.648;23.384;2023-06-14T08:25:34;9.93;;;7.90;;
56051;SDS011;41919;42.648;23.384;2023-06-14T08:27:59;8.80;;;7.28;;
56051;SDS011;41919;42.648;23.384;2023-06-14T08:30:25;8.98;;;8.07;;
56051;SDS011;41919;42.648;23.384;2023-06-14T08:32:51;10.75;;;8.07;;
56051;SDS011;41919;42.648;23.384;2023-06-14T08:35:17;9.85;;;7.45;;
56051;SDS011;41919;42.648;23.384;2023-06-14T08:37:43;8.98;;;7.63;;
56051;SDS011;41919;42.648;23.384;2023-06-14T08:40:18;8.70;;;7.60;;
56051;SDS011;41919;42.648;23.384;2023-06-14T08:42:47;10.70;;;7.53;;
56051;SDS011;41919;42.648;23.384;2023-06-14T08:45:15;11.10;;;8.32;;
56051;SDS011;41919;42.648;23.384;2023-06-14T08:47:40;9.73;;;7.90;;
56051;SDS011;41919;42.648;23.384;2023-06-14T08:50:06;10.32;;;8.65;;
56051;SDS011;41919;42.648;23.384;2023-06-14T08:52:33;8.98;;;7.80;;
56051;SDS011;41919;42.648;23.384;2023-06-14T08:55:06;9.10;;;7.15;;
56051;SDS011;41919;42.648;23.384;2023-06-14T08:57:33;7.70;;;6.90;;
56051;SDS011;41919;42.648;23.384;2023-06-14T09:00:02;10.15;;;7.55;;
56051;SDS011;41919;42.648;23.384;2023-06-14T09:02:36;9.25;;;7.05;;
56051;SDS011;41919;42.648;23.384;2023-06-14T09:05:02;8.43;;;7.07;;
56051;SDS011;41919;42.648;23.384;2023-06-14T09:07:28;7.55;;;6.53;;
56051;SDS011;41919;42.648;23.384;2023-06-14T09:10:13;11.10;;;7.60;;
56051;SDS011;41919;42.648;23.384;2023-06-14T09:12:40;9.32;;;7.32;;
56051;SDS011;41919;42.648;23.384;2023-06-14T09:15:06;7.85;;;7.05;;
56051;SDS011;41919;42.648;23.384;2023-06-14T09:17:34;10.88;;;7.97;;
56051;SDS011;41919;42.648;23.384;2023-06-14T09:20:05;7.53;;;6.68;;
56051;SDS011;41919;42.648;23.384;2023-06-14T09:22:31;8.48;;;7.15;;
56051;SDS011;41919;42.648;23.384;2023-06-14T09:24:58;9.90;;;7.43;;
56051;SDS011;41919;42.648;23.384;2023-06-14T09:27:27;8.98;;;7.22;;
56051;SDS011;41919;42.648;23.384;2023-06-14T09:29:54;8.95;;;7.00;;
56051;SDS011;41919;42.648;23.384;2023-06-14T09:32:20;11.00;;;8.35;;
56051;SDS011;41919;42.648;23.384;2023-06-14T09:34:46;8.85;;;7.50;;
56051;SDS011;41919;42.648;23.384;2023-06-14T09:37:12;10.07;;;7.38;;
56051;SDS011;41919;42.648;23.384;2023-06-14T09:39:50;7.80;;;7.00;;
56051;SDS011;41919;42.648;23.384;2023-06-14T09:42:16;8.98;;;7.38;;
56051;SDS011;41919;42.648;23.384;2023-06-14T09:44:48;8.95;;;7.22;;
56051;SDS011;41919;42.648;23.384;2023-06-14T09:47:15;10.23;;;7.07;;
56051;SDS011;41919;42.648;23.384;2023-06-14T09:49:41;8.65;;;7.40;;
56051;SDS011;41919;42.648;23.384;2023-06-14T09:52:10;10.80;;;6.95;;
56051;SDS011;41919;42.648;23.384;2023-06-14T09:54:39;8.65;;;6.63;;
56051;SDS011;41919;42.648;23.384;2023-06-14T09:57:07;9.90;;;6.88;;
56051;SDS011;41919;42.648;23.384;2023-06-14T09:59:36;8.90;;;7.10;;
56051;SDS011;41919;42.648;23.384;2023-06-14T10:02:09;8.90;;;7.88;;
56051;SDS011;41919;42.648;23.384;2023-06-14T10:04:40;8.52;;;7.57;;
56051;SDS011;41919;42.648;23.384;2023-06-14T10:07:12;10.55;;;7.20;;
56051;SDS011;41919;42.648;23.384;2023-06-14T10:09:41;8.55;;;7.38;;
56051;SDS011;41919;42.648;23.384;2023-06-14T10:12:09;8.25;;;6.88;;
56051;SDS011;41919;42.648;23.384;2023-06-14T10:14:35;8.38;;;7.25;;
56051;SDS011;41919;42.648;23.384;2023-06-14T10:17:11;11.30;;;7.82;;
56051;SDS011;41919;42.648;23.384;2023-06-14T10:19:44;10.23;;;7.95;;
56051;SDS011;41919;42.648;23.384;2023-06-14T10:22:32;7.70;;;6.88;;
56051;SDS011;41919;42.648;23.384;2023-06-14T10:25:03;7.65;;;6.43;;
56051;SDS011;41919;42.648;23.384;2023-06-14T10:27:37;8.38;;;7.10;;
56051;SDS011;41919;42.648;23.384;2023-06-14T10:30:03;8.90;;;7.03;;
56051;SDS011;41919;42.648;23.384;2023-06-14T10:32:31;9.13;;;6.65;;
56051;SDS011;41919;42.648;23.384;2023-06-14T10:34:58;9.55;;;6.97;;
56051;SDS011;41919;42.648;23.384;2023-06-14T10:37:25;6.57;;;5.88;;
56051;SDS011;41919;42.648;23.384;2023-06-14T10:39:51;8.52;;;7.47;;
56051;SDS011;41919;42.648;23.384;2023-06-14T10:42:18;11.00;;;6.88;;
56051;SDS011;41919;42.648;23.384;2023-06-14T10:45:18;11.07;;;7.15;;
56051;SDS011;41919;42.648;23.384;2023-06-14T10:47:37;9.10;;;7.40;;
56051;SDS011;41919;42.648;23.384;2023-06-14T10:50:08;8.25;;;6.65;;
56051;SDS011;41919;42.648;23.384;2023-06-14T10:52:38;9.48;;;7.18;;
56051;SDS011;41919;42.648;23.384;2023-06-14T11:00:14;6.82;;;6.00;;
56051;SDS011;41919;42.648;23.384;2023-06-14T11:02:48;7.75;;;6.20;;
56051;SDS011;41919;42.648;23.384;2023-06-14T11:11:05;10.23;;;6.85;;
56051;SDS011;41919;42.648;23.384;2023-06-14T11:13:32;6.50;;;5.90;;
56051;SDS011;41919;42.648;23.384;2023-06-14T11:15:58;7.07;;;5.90;;
56051;SDS011;41919;42.648;23.384;2023-06-14T11:18:24;7.13;;;6.03;;
56051;SDS011;41919;42.648;23.384;2023-06-14T11:20:52;8.15;;;6.45;;
56051;SDS011;41919;42.648;23.384;2023-06-14T11:23:17;7.60;;;6.18;;
56051;SDS011;41919;42.648;23.384;2023-06-14T11:25:43;6.90;;;5.78;;
56051;SDS011;41919;42.648;23.384;2023-06-14T11:28:08;6.85;;;5.40;;
56051;SDS011;41919;42.648;23.384;2023-06-14T11:30:34;7.60;;;5.07;;
56051;SDS011;41919;42.648;23.384;2023-06-14T11:32:59;7.13;;;6.13;;
56051;SDS011;41919;42.648;23.384;2023-06-14T11:35:25;5.70;;;5.20;;
56051;SDS011;41919;42.648;23.384;2023-06-14T11:37:54;6.53;;;5.30;;
56051;SDS011;41919;42.648;23.384;2023-06-14T11:40:23;9.55;;;5.35;;
56051;SDS011;41919;42.648;23.384;2023-06-14T11:42:59;7.00;;;5.07;;
56051;SDS011;41919;42.648;23.384;2023-06-14T11:45:25;4.95;;;4.45;;
56051;SDS011;41919;42.648;23.384;2023-06-14T11:47:51;5.88;;;5.25;;
56051;SDS011;41919;42.648;23.384;2023-06-14T11:50:19;6.05;;;5.43;;
56051;SDS011;41919;42.648;23.384;2023-06-14T11:52:44;6.50;;;4.95;;
56051;SDS011;41919;42.648;23.384;2023-06-14T11:55:09;6.95;;;5.10;;
56051;SDS011;41919;42.648;23.384;2023-06-14T11:57:35;5.95;;;5.22;;
56051;SDS011;41919;42.648;23.384;2023-06-14T12:00:04;6.70;;;4.95;;
56051;SDS011;41919;42.648;23.384;2023-06-14T12:02:38;5.13;;;4.63;;
56051;SDS011;41919;42.648;23.384;2023-06-14T12:05:05;5.60;;;5.05;;
56051;SDS011;41919;42.648;23.384;2023-06-14T12:07:37;6.38;;;4.70;;
56051;SDS011;41919;42.648;23.384;2023-06-14T12:10:05;6.50;;;4.63;;
56051;SDS011;41919;42.648;23.384;2023-06-14T12:12:36;5.47;;;4.97;;
56051;SDS011;41919;42.648;23.384;2023-06-14T12:15:04;5.65;;;5.13;;
56051;SDS011;41919;42.648;23.384;2023-06-14T12:17:31;6.28;;;4.47;;
56051;SDS011;41919;42.648;23.384;2023-06-14T12:19:58;5.85;;;4.78;;
56051;SDS011;41919;42.648;23.384;2023-06-14T12:22:23;6.00;;;5.28;;
56051;SDS011;41919;42.648;23.384;2023-06-14T12:24:49;5.28;;;4.78;;
56051;SDS011;41919;42.648;23.384;2023-06-14T12:27:14;5.65;;;5.13;;
56051;SDS011;41919;42.648;23.384;2023-06-14T12:29:43;6.55;;;4.80;;
56051;SDS011;41919;42.648;23.384;2023-06-14T12:32:09;6.15;;;4.97;;
56051;SDS011;41919;42.648;23.384;2023-06-14T12:34:35;4.65;;;4.25;;
56051;SDS011;41919;42.648;23.384;2023-06-14T12:37:00;7.00;;;4.55;;
56051;SDS011;41919;42.648;23.384;2023-06-14T12:39:28;4.70;;;4.30;;
56051;SDS011;41919;42.648;23.384;2023-06-14T12:41:55;4.57;;;4.18;;
56051;SDS011;41919;42.648;23.384;2023-06-14T12:44:20;5.03;;;4.57;;
56051;SDS011;41919;42.648;23.384;2023-06-14T12:46:45;4.82;;;4.32;;
56051;SDS011;41919;42.648;23.384;2023-06-14T12:49:12;4.47;;;4.00;;
56051;SDS011;41919;42.648;23.384;2023-06-14T12:51:40;4.13;;;3.60;;
56051;SDS011;41919;42.648;23.384;2023-06-14T12:54:06;6.05;;;4.07;;
56051;SDS011;41919;42.648;23.384;2023-06-14T12:56:31;4.65;;;4.20;;
56051;SDS011;41919;42.648;23.384;2023-06-14T12:58:57;4.32;;;3.92;;
56051;SDS011;41919;42.648;23.384;2023-06-14T13:01:24;6.95;;;4.75;;
56051;SDS011;41919;42.648;23.384;2023-06-14T13:03:49;6.43;;;4.35;;
56051;SDS011;41919;42.648;23.384;2023-06-14T13:06:16;7.43;;;4.45;;
56051;SDS011;41919;42.648;23.384;2023-06-14T13:08:42;5.85;;;4.88;;
56051;SDS011;41919;42.648;23.384;2023-06-14T13:11:08;6.40;;;5.43;;
56051;SDS011;41919;42.648;23.384;2023-06-14T13:13:33;7.90;;;5.32;;
56051;SDS011;41919;42.648;23.384;2023-06-14T13:15:58;8.70;;;5.57;;
56051;SDS011;41919;42.648;23.384;2023-06-14T13:18:24;8.27;;;5.90;;
56051;SDS011;41919;42.648;23.384;2023-06-14T13:20:49;9.40;;;5.57;;
56051;SDS011;41919;42.648;23.384;2023-06-14T13:23:15;7.68;;;5.25;;
56051;SDS011;41919;42.648;23.384;2023-06-14T13:25:41;8.35;;;6.00;;
56051;SDS011;41919;42.648;23.384;2023-06-14T13:28:07;6.05;;;4.68;;
56051;SDS011;41919;42.648;23.384;2023-06-14T13:30:32;5.97;;;5.10;;
56051;SDS011;41919;42.648;23.384;2023-06-14T13:32:58;7.05;;;5.47;;
56051;SDS011;41919;42.648;23.384;2023-06-14T13:35:24;7.18;;;5.80;;
56051;SDS011;41919;42.648;23.384;2023-06-14T13:37:50;7.85;;;5.78;;
56051;SDS011;41919;42.648;23.384;2023-06-14T13:40:16;7.93;;;5.40;;
56051;SDS011;41919;42.648;23.384;2023-06-14T13:42:41;7.55;;;4.95;;
56051;SDS011;41919;42.648;23.384;2023-06-14T13:45:07;7.50;;;5.80;;
56051;SDS011;41919;42.648;23.384;2023-06-14T13:47:33;7.18;;;5.35;;
56051;SDS011;41919;42.648;23.384;2023-06-14T13:49:59;6.68;;;4.53;;
56051;SDS011;41919;42.648;23.384;2023-06-14T13:52:25;5.00;;;4.00;;
56051;SDS011;41919;42.648;23.384;2023-06-14T13:54:51;5.68;;;4.00;;
56051;SDS011;41919;42.648;23.384;2023-06-14T13:57:16;6.03;;;4.68;;
56051;SDS011;41919;42.648;23.384;2023-06-14T13:59:42;4.00;;;3.40;;
56051;SDS011;41919;42.648;23.384;2023-06-14T14:02:09;5.32;;;4.22;;
56051;SDS011;41919;42.648;23.384;2023-06-14T14:04:36;5.25;;;4.05;;
56051;SDS011;41919;42.648;23.384;2023-06-14T14:07:02;6.20;;;4.20;;
56051;SDS011;41919;42.648;23.384;2023-06-14T14:09:28;5.20;;;4.32;;
56051;SDS011;41919;42.648;23.384;2023-06-14T14:11:53;5.65;;;4.43;;
56051;SDS011;41919;42.648;23.384;2023-06-14T14:14:19;5.28;;;4.35;;
56051;SDS011;41919;42.648;23.384;2023-06-14T14:16:44;6.28;;;5.10;;
56051;SDS011;41919;42.648;23.384;2023-06-14T14:19:09;7.10;;;5.30;;
56051;SDS011;41919;42.648;23.384;2023-06-14T14:21:36;7.30;;;5.32;;
56051;SDS011;41919;42.648;23.384;2023-06-14T14:24:01;7.05;;;5.22;;
56051;SDS011;41919;42.648;23.384;2023-06-14T14:26:28;6.53;;;4.82;;
56051;SDS011;41919;42.648;23.384;2023-06-14T14:28:53;5.15;;;4.15;;
56051;SDS011;41919;42.648;23.384;2023-06-14T14:31:19;7.68;;;4.75;;
56051;SDS011;41919;42.648;23.384;2023-06-14T14:33:44;5.72;;;4.78;;
56051;SDS011;41919;42.648;23.384;2023-06-14T14:36:10;7.13;;;5.10;;
56051;SDS011;41919;42.648;23.384;2023-06-14T14:38:35;5.35;;;4.22;;
56051;SDS011;41919;42.648;23.384;2023-06-14T14:41:01;8.00;;;5.05;;
56051;SDS011;41919;42.648;23.384;2023-06-14T14:43:26;8.75;;;5.07;;
56051;SDS011;41919;42.648;23.384;2023-06-14T14:45:52;7.43;;;4.72;;
56051;SDS011;41919;42.648;23.384;2023-06-14T14:48:17;5.80;;;4.88;;
56051;SDS011;41919;42.648;23.384;2023-06-14T14:50:42;8.63;;;6.93;;
56051;SDS011;41919;42.648;23.384;2023-06-14T14:53:08;5.90;;;4.82;;
56051;SDS011;41919;42.648;23.384;2023-06-14T14:55:33;9.07;;;5.35;;
56051;SDS011;41919;42.648;23.384;2023-06-14T14:58:01;8.27;;;5.80;;
56051;SDS011;41919;42.648;23.384;2023-06-14T15:00:28;7.38;;;5.65;;
56051;SDS011;41919;42.648;23.384;2023-06-14T15:02:53;8.57;;;5.57;;
56051;SDS011;41919;42.648;23.384;2023-06-14T15:05:19;8.88;;;5.57;;
56051;SDS011;41919;42.648;23.384;2023-06-14T15:07:44;6.82;;;5.18;;
56051;SDS011;41919;42.648;23.384;2023-06-14T15:10:10;7.60;;;5.57;;
56051;SDS011;41919;42.648;23.384;2023-06-14T15:12:36;9.13;;;6.47;;
56051;SDS011;41919;42.648;23.384;2023-06-14T15:15:02;10.00;;;6.10;;
56051;SDS011;41919;42.648;23.384;2023-06-14T15:17:28;7.45;;;5.47;;
56051;SDS011;41919;42.648;23.384;2023-06-14T15:19:53;6.57;;;5.45;;
56051;SDS011;41919;42.648;23.384;2023-06-14T15:22:19;8.48;;;5.35;;
56051;SDS011;41919;42.648;23.384;2023-06-14T15:24:44;9.43;;;6.70;;
56051;SDS011;41919;42.648;23.384;2023-06-14T15:27:11;8.18;;;6.38;;
56051;SDS011;41919;42.648;23.384;2023-06-14T15:29:37;8.98;;;5.88;;
56051;SDS011;41919;42.648;23.384;2023-06-14T15:32:04;7.95;;;5.80;;
56051;SDS011;41919;42.648;23.384;2023-06-14T15:34:30;8.15;;;5.95;;
56051;SDS011;41919;42.648;23.384;2023-06-14T15:36:56;8.85;;;6.10;;
56051;SDS011;41919;42.648;23.384;2023-06-14T15:39:21;7.57;;;6.10;;
56051;SDS011;41919;42.648;23.384;2023-06-14T15:41:48;8.82;;;6.97;;
56051;SDS011;41919;42.648;23.384;2023-06-14T15:44:13;9.63;;;6.63;;
56051;SDS011;41919;42.648;23.384;2023-06-14T15:46:39;7.18;;;5.97;;
56051;SDS011;41919;42.648;23.384;2023-06-14T15:49:11;8.40;;;6.20;;
56051;SDS011;41919;42.648;23.384;2023-06-14T15:51:38;9.90;;;6.15;;
56051;SDS011;41919;42.648;23.384;2023-06-14T15:54:03;7.97;;;5.95;;
56051;SDS011;41919;42.648;23.384;2023-06-14T15:56:29;7.07;;;4.93;;
56051;SDS011;41919;42.648;23.384;2023-06-14T15:58:55;6.25;;;5.20;;
56051;SDS011;41919;42.648;23.384;2023-06-14T16:01:21;8.63;;;6.40;;
56051;SDS011;41919;42.648;23.384;2023-06-14T16:03:47;6.43;;;5.10;;
56051;SDS011;41919;42.648;23.384;2023-06-14T16:06:12;8.05;;;4.50;;
56051;SDS011;41919;42.648;23.384;2023-06-14T16:08:38;6.38;;;4.65;;
56051;SDS011;41919;42.648;23.384;2023-06-14T16:11:03;5.45;;;4.45;;
56051;SDS011;41919;42.648;23.384;2023-06-14T16:13:28;5.75;;;4.30;;